Česky Dansk Deutsch English Español Suomi Français Magyar Italiano Nederlands norsk Polski Português svenska Türkçe

 

Het Weer

Gomel' (Wit Rusland)

06:00, 21 augustus 2016 (GMT)

NWNNE
WE
SWSSE
Home            
Gomel' Hostomel Brjansk Kyiv Boryspil Minsk Loshitsa / Minsk International 1 Vitebsk Cherkasy Rivne Velikie Luki Vilnius Kharkiv Grodno Brest Dnipropetrovs'k Krivyy Rih / Dnipropetrovs'k Moscow / Vnukovo Kaunas Moscow / Domodedovo Moscow / Sheremet'Ye Voronez Baltsi-Leadoveni - The North of Moldova

Om een weerknop op uw website of weblog te plaatsen, copieer onderstaande code en plak die in uw pagina. In het eerste vakje staat HTML-code, in het tweede vakje UBB-code.


Add to Google

Details

Visibility:Greater than 10000 m, 10 km, 32800 ft, 6.2 miles
Clouds:CAVOC
Temperature:21°C, 70°F
Dew-point:15°C, 59°F
Atmospheric pressure:1024 hPa, 768.1 mmHg, 30.24 inHg, 1.011 atm
Relative humidity:68.6 %
METAR:UMGG 210600Z 00000MPS CAVOK 21/15 Q1024 R10/CLRD NOSIG

Snelkoppelingen

Actuele weersinformatie van de hele wereld. Voeg locaties toe met het plus (+) symbool. Deze snelkoppelingen kunnen worden toegevoegd aan Google.

Lid van de Technetium groep

website free tracking
StatCounter NetStat W3C Validator

24-11-2020 10:17:13
astro.technetium.be money.technetium.be phote.technetium.be tafeltennistafel.technetium.be www.ligfiets.net